Harbor Springs, Michigan
Current Conditions -  °F | °C
As of 12:35 AM on Thursday 27 Nov 2014 (Local Time) from KMGN Reporting Station
Overcast Overcast  
Wind Chill: 21°   Ceiling: 2600
Heat Index: 28°   Visibility: 10mi
Dew Point: 24°   Wind: 7mph
Humidity: 84%   Direction: 310°NW
Pressure: 30.12"   Gusts: NA
Location:  45.43°N, 84.99°W
Report Text: KMGN 270535Z AUTO 31006KT 10SM OVC026 M02/M04 A3012 RMK AO2 T10201044
Loading
Personal Weather Stations






























Interactive Weather Map New forecast layout! Learn more

10-Day Weather Forecast

Advertisements
Track Severe Weather on mobile